createdAt,value
2019-04-30T00:00:30.382Z,91.57
2019-04-30T00:02:58.499Z,91.57
2019-04-30T00:05:25.805Z,91.57
2019-04-30T00:07:55.029Z,91.60
2019-04-30T00:10:22.069Z,91.64
2019-04-30T00:12:49.107Z,91.66
2019-04-30T00:15:19.535Z,91.62
2019-04-30T00:17:46.038Z,91.62
2019-04-30T00:20:15.152Z,91.62
2019-04-30T00:22:47.142Z,91.58
2019-04-30T00:25:12.480Z,91.54
2019-04-30T00:27:39.937Z,91.61
2019-04-30T00:30:08.993Z,91.63
2019-04-30T00:32:39.045Z,91.67
2019-04-30T00:35:07.340Z,91.69
2019-04-30T00:37:35.254Z,91.69
2019-04-30T00:40:02.601Z,91.70
2019-04-30T00:42:30.023Z,91.69
2019-04-30T00:44:59.682Z,91.71
2019-04-30T00:47:26.312Z,91.77
2019-04-30T00:49:58.981Z,91.82
2019-04-30T00:52:22.427Z,91.85
2019-04-30T00:54:49.755Z,91.87
2019-04-30T00:57:17.059Z,91.88
2019-04-30T00:59:47.870Z,91.88
2019-04-30T01:02:12.931Z,91.87
2019-04-30T01:04:40.299Z,91.86
2019-04-30T01:07:08.735Z,91.83
2019-04-30T01:09:39.581Z,91.82
2019-04-30T01:12:05.511Z,91.81
2019-04-30T01:14:33.006Z,91.80
2019-04-30T01:17:03.857Z,91.78
2019-04-30T01:19:32.286Z,91.76
2019-04-30T01:21:59.450Z,91.79
2019-04-30T01:24:28.429Z,91.79
2019-04-30T01:26:55.480Z,91.78
2019-04-30T01:29:22.876Z,91.73
2019-04-30T01:31:49.929Z,91.80
2019-04-30T01:34:17.283Z,91.80
2019-04-30T01:36:50.691Z,91.78
2019-04-30T01:39:13.733Z,91.78
2019-04-30T01:41:40.795Z,91.79
2019-04-30T01:44:11.821Z,91.76
2019-04-30T01:46:36.871Z,91.82
2019-04-30T01:49:04.263Z,91.85
2019-04-30T01:51:31.395Z,91.85
2019-04-30T01:53:59.477Z,91.86
2019-04-30T01:56:26.621Z,91.93
2019-04-30T01:58:53.666Z,91.93
2019-04-30T02:01:20.716Z,91.94
2019-04-30T02:03:48.688Z,91.97
2019-04-30T02:06:15.900Z,91.98
2019-04-30T02:08:43.325Z,91.99
2019-04-30T02:11:10.683Z,92.01
2019-04-30T02:13:39.249Z,92.04
2019-04-30T02:16:06.272Z,92.17
2019-04-30T02:18:33.653Z,92.16
2019-04-30T02:21:01.007Z,92.10
2019-04-30T02:23:29.700Z,92.14
2019-04-30T02:25:58.818Z,92.20
2019-04-30T02:28:25.760Z,92.14
2019-04-30T02:30:53.098Z,92.09
2019-04-30T02:33:20.250Z,92.12
2019-04-30T02:35:49.964Z,92.18
2019-04-30T02:38:16.300Z,92.17
2019-04-30T02:40:43.345Z,92.19
2019-04-30T02:43:10.410Z,92.15
2019-04-30T02:45:39.957Z,92.20
2019-04-30T02:48:06.213Z,92.20
2019-04-30T02:50:33.259Z,92.17
2019-04-30T02:53:02.796Z,92.21
2019-04-30T02:55:29.687Z,92.17
2019-04-30T02:57:56.744Z,92.19
2019-04-30T03:00:24.114Z,92.22
2019-04-30T03:02:51.473Z,92.20
2019-04-30T03:05:20.304Z,92.20
2019-04-30T03:07:52.961Z,92.22
2019-04-30T03:10:16.475Z,92.17
2019-04-30T03:12:43.506Z,92.14
2019-04-30T03:15:10.563Z,92.20
2019-04-30T03:17:39.429Z,92.21
2019-04-30T03:20:06.729Z,92.19
2019-04-30T03:22:33.764Z,92.28
2019-04-30T03:25:00.826Z,92.28
2019-04-30T03:27:30.196Z,92.29
2019-04-30T03:29:56.610Z,92.30
2019-04-30T03:32:23.653Z,92.26
2019-04-30T03:34:51.891Z,92.26
2019-04-30T03:37:19.836Z,92.33
2019-04-30T03:39:49.237Z,92.39
2019-04-30T03:42:16.236Z,92.35
2019-04-30T03:44:43.293Z,92.37
2019-04-30T03:47:11.189Z,92.38
2019-04-30T03:49:40.193Z,92.41
2019-04-30T03:52:09.996Z,92.46
2019-04-30T03:54:36.329Z,92.47
2019-04-30T03:57:03.377Z,92.52
2019-04-30T03:59:30.560Z,92.60
2019-04-30T04:01:59.530Z,92.55
2019-04-30T04:04:27.028Z,92.57
2019-04-30T04:06:54.077Z,92.61
2019-04-30T04:09:22.352Z,92.61
2019-04-30T04:11:50.793Z,92.64
2019-04-30T04:14:19.791Z,92.64
2019-04-30T04:16:47.282Z,92.66
2019-04-30T04:19:14.348Z,92.63
2019-04-30T04:21:41.387Z,92.65
2019-04-30T04:24:10.593Z,92.62
2019-04-30T04:26:37.181Z,92.60
2019-04-30T04:29:04.245Z,92.59
2019-04-30T04:31:31.294Z,92.63
2019-04-30T04:34:00.093Z,92.71
2019-04-30T04:36:29.933Z,92.72
2019-04-30T04:38:56.023Z,92.74
2019-04-30T04:41:23.084Z,92.67
2019-04-30T04:43:50.613Z,92.71
2019-04-30T04:46:20.301Z,92.78
2019-04-30T04:48:49.266Z,92.78
2019-04-30T04:51:31.307Z,92.84
2019-04-30T04:53:44.672Z,92.73
2019-04-30T04:56:12.000Z,92.79
2019-04-30T04:58:40.236Z,92.64
2019-04-30T05:01:09.051Z,92.68
2019-04-30T05:03:36.450Z,92.63
2019-04-30T05:06:03.754Z,92.50
2019-04-30T05:08:30.797Z,92.34
2019-04-30T05:10:59.427Z,92.38
2019-04-30T05:13:26.632Z,92.37
2019-04-30T05:15:53.686Z,92.29
2019-04-30T05:18:22.753Z,92.26
2019-04-30T05:20:49.491Z,92.22
2019-04-30T05:23:16.531Z,92.19
2019-04-30T05:25:43.891Z,92.11
2019-04-30T05:28:11.227Z,92.23
2019-04-30T05:30:39.309Z,92.15
2019-04-30T05:33:08.815Z,92.00
2019-04-30T05:35:36.018Z,91.94
2019-04-30T05:38:03.063Z,91.90
2019-04-30T05:40:30.368Z,91.58
2019-04-30T05:42:57.418Z,91.65
2019-04-30T05:45:24.758Z,91.45
2019-04-30T05:47:51.872Z,91.33
2019-04-30T05:50:19.976Z,91.28
2019-04-30T05:52:49.287Z,91.23
2019-04-30T05:55:19.587Z,91.10
2019-04-30T05:57:53.860Z,90.91
2019-04-30T06:00:15.242Z,90.17
2019-04-30T06:02:42.597Z,90.25
2019-04-30T06:05:09.640Z,89.98
2019-04-30T06:07:36.953Z,89.82
2019-04-30T06:10:04.371Z,89.93
2019-04-30T06:12:31.427Z,89.51
2019-04-30T06:14:59.007Z,89.36
2019-04-30T06:17:26.095Z,89.52
2019-04-30T06:19:53.137Z,88.98
2019-04-30T06:22:20.194Z,88.10
2019-04-30T06:24:47.232Z,88.67
2019-04-30T06:27:14.289Z,88.23
2019-04-30T06:29:41.406Z,88.26
2019-04-30T06:32:08.831Z,88.41
2019-04-30T06:34:35.874Z,88.61
2019-04-30T06:37:02.941Z,88.89
2019-04-30T06:39:29.979Z,88.75
2019-04-30T06:42:06.273Z,88.74
2019-04-30T06:44:43.635Z,88.54
2019-04-30T06:47:10.694Z,88.12
2019-04-30T06:49:39.270Z,87.95
2019-04-30T06:52:19.562Z,87.83
2019-04-30T06:54:35.631Z,87.77
2019-04-30T06:57:02.683Z,87.31
2019-04-30T06:59:29.981Z,86.84
2019-04-30T07:04:40.175Z,87.09
2019-04-30T07:07:09.064Z,87.75
2019-04-30T07:09:51.119Z,87.97
2019-04-30T07:12:04.873Z,87.67
2019-04-30T07:14:32.275Z,87.89
2019-04-30T07:16:59.543Z,87.49
2019-04-30T07:19:34.526Z,87.48
2019-04-30T07:21:55.867Z,87.40
2019-04-30T07:24:22.931Z,87.24
2019-04-30T07:26:49.980Z,86.45
2019-04-30T07:29:17.021Z,86.56
2019-04-30T07:31:44.374Z,86.50
2019-04-30T07:34:11.435Z,86.14
2019-04-30T07:36:46.923Z,85.38
2019-04-30T07:39:10.039Z,85.69
2019-04-30T07:44:34.116Z,85.17
2019-04-30T07:46:54.067Z,85.26
2019-04-30T07:49:21.432Z,84.87
2019-04-30T07:51:51.443Z,84.80
2019-04-30T07:54:18.932Z,84.40
2019-04-30T07:56:51.120Z,84.70
2019-04-30T07:59:20.140Z,84.00
2019-04-30T08:02:03.192Z,84.12
2019-04-30T08:04:16.386Z,84.51
2019-04-30T08:06:46.086Z,84.37
2019-04-30T08:09:14.509Z,83.94
2019-04-30T08:11:43.610Z,84.01
2019-04-30T08:14:11.878Z,84.23
2019-04-30T08:16:39.256Z,84.57
2019-04-30T08:19:06.313Z,84.06
2019-04-30T08:21:33.361Z,84.52
2019-04-30T08:24:01.101Z,84.72
2019-04-30T08:26:28.831Z,84.55
2019-04-30T08:28:55.885Z,84.78
2019-04-30T08:31:22.929Z,84.97
2019-04-30T08:33:50.950Z,85.14
2019-04-30T08:36:19.659Z,85.22
2019-04-30T08:38:47.023Z,85.11
2019-04-30T08:41:21.520Z,85.21
2019-04-30T08:43:49.655Z,85.47
2019-04-30T08:46:18.844Z,85.58
2019-04-30T08:48:50.777Z,85.67
2019-04-30T08:51:15.042Z,85.73
2019-04-30T08:56:14.555Z,86.18
2019-04-30T08:58:41.619Z,86.36
2019-04-30T09:01:08.856Z,86.65
2019-04-30T09:03:36.287Z,86.80
2019-04-30T09:06:03.646Z,86.98
2019-04-30T09:08:30.706Z,87.37
2019-04-30T09:10:59.497Z,87.83
2019-04-30T09:13:28.698Z,87.97
2019-04-30T09:15:55.599Z,87.88
2019-04-30T09:18:22.986Z,88.03
2019-04-30T09:20:50.023Z,88.21
2019-04-30T09:23:18.724Z,88.31
2019-04-30T09:25:46.171Z,87.80
2019-04-30T09:28:13.211Z,87.33
2019-04-30T09:30:40.266Z,86.79
2019-04-30T09:33:10.887Z,85.81
2019-04-30T09:35:36.323Z,84.59
2019-04-30T09:38:03.372Z,82.90
2019-04-30T09:40:32.507Z,80.91
2019-04-30T09:43:00.425Z,80.52
2019-04-30T09:45:28.561Z,79.65
2019-04-30T09:47:55.748Z,80.10
2019-04-30T09:50:22.803Z,78.72
2019-04-30T09:52:50.246Z,78.80
2019-04-30T09:55:19.253Z,78.37
2019-04-30T09:57:46.416Z,78.60
2019-04-30T10:00:13.475Z,79.58
2019-04-30T10:02:40.586Z,78.36
2019-04-30T10:05:08.162Z,78.25
2019-04-30T10:07:35.432Z,77.94
2019-04-30T10:10:03.991Z,75.47
2019-04-30T10:12:31.041Z,73.76
2019-04-30T10:14:59.303Z,71.94
2019-04-30T10:17:27.596Z,69.90
2019-04-30T10:19:54.659Z,64.45
2019-04-30T10:22:21.706Z,63.68
2019-04-30T10:24:49.523Z,65.56
2019-04-30T10:27:18.916Z,63.34
2019-04-30T10:29:45.731Z,59.03
2019-04-30T10:32:25.169Z,59.87
2019-04-30T10:37:48.538Z,57.09
2019-04-30T10:40:13.505Z,59.85
2019-04-30T10:45:34.862Z,58.66
2019-04-30T10:48:08.311Z,58.46
2019-04-30T10:50:35.741Z,54.77
2019-04-30T10:53:09.162Z,48.16
2019-04-30T10:55:38.645Z,49.63
2019-04-30T10:58:06.617Z,46.54
2019-04-30T11:00:34.804Z,49.28
2019-04-30T11:03:03.993Z,52.72
2019-04-30T11:05:31.271Z,52.78
2019-04-30T11:08:11.601Z,52.46
2019-04-30T11:10:39.934Z,52.82
2019-04-30T11:16:11.696Z,49.75
2019-04-30T11:18:29.743Z,43.69
2019-04-30T11:20:57.215Z,40.73
2019-04-30T11:23:26.862Z,41.01
2019-04-30T11:26:00.141Z,41.81
2019-04-30T11:28:28.733Z,41.97
2019-04-30T11:30:57.658Z,41.94
2019-04-30T11:33:31.436Z,43.82
2019-04-30T11:36:04.997Z,44.26
2019-04-30T11:43:42.992Z,42.17
2019-04-30T11:51:30.657Z,44.64
2019-04-30T11:53:59.380Z,46.85
2019-04-30T11:56:31.817Z,47.32
2019-04-30T11:59:10.011Z,47.89
2019-04-30T12:04:25.627Z,45.47
2019-04-30T12:06:54.061Z,44.59
2019-04-30T12:09:39.682Z,45.26
2019-04-30T12:14:49.465Z,41.54
2019-04-30T12:19:58.692Z,35.03
2019-04-30T12:22:25.835Z,35.89
2019-04-30T12:25:05.490Z,35.59
2019-04-30T12:30:10.556Z,39.52
2019-04-30T12:32:40.781Z,40.69
2019-04-30T12:35:08.021Z,40.98
2019-04-30T12:37:38.974Z,41.33
2019-04-30T12:40:25.844Z,42.04
2019-04-30T12:45:31.655Z,41.57
2019-04-30T12:47:58.905Z,41.42
2019-04-30T12:50:29.209Z,42.60
2019-04-30T12:55:31.720Z,43.88
2019-04-30T12:58:01.563Z,42.45
2019-04-30T13:00:39.132Z,41.03
2019-04-30T13:03:08.130Z,40.48
2019-04-30T13:05:37.307Z,38.83
2019-04-30T13:08:05.058Z,38.23
2019-04-30T13:10:41.846Z,38.48
2019-04-30T13:15:42.928Z,39.83
2019-04-30T13:20:43.727Z,41.79
2019-04-30T13:23:10.803Z,44.96
2019-04-30T13:28:27.296Z,43.46
2019-04-30T13:30:54.652Z,42.32
2019-04-30T13:33:22.005Z,43.71
2019-04-30T13:35:49.045Z,44.40
2019-04-30T13:38:16.110Z,44.20
2019-04-30T13:40:43.154Z,44.25
2019-04-30T13:43:11.282Z,45.12
2019-04-30T13:45:38.863Z,44.28
2019-04-30T13:48:05.964Z,44.68
2019-04-30T13:50:34.412Z,44.53
2019-04-30T14:00:57.421Z,42.92
2019-04-30T14:03:26.843Z,42.80
2019-04-30T14:06:05.552Z,43.56
2019-04-30T14:08:38.826Z,44.57
2019-04-30T14:13:52.400Z,47.89
2019-04-30T14:16:21.713Z,47.24
2019-04-30T14:18:54.749Z,47.59
2019-04-30T14:21:34.655Z,47.82
2019-04-30T14:23:53.080Z,48.31
2019-04-30T14:26:20.262Z,48.37
2019-04-30T14:28:52.611Z,47.07
2019-04-30T14:31:29.822Z,47.49
2019-04-30T14:33:57.101Z,46.68
2019-04-30T14:36:40.808Z,46.01
2019-04-30T14:39:16.657Z,47.09
2019-04-30T14:41:52.762Z,46.59
2019-04-30T14:44:25.028Z,44.55
2019-04-30T14:47:00.305Z,45.58
2019-04-30T14:52:10.016Z,45.19
2019-04-30T14:54:42.440Z,44.54
2019-04-30T14:57:17.785Z,45.31
2019-04-30T14:59:46.384Z,44.78
2019-04-30T15:02:23.992Z,44.24
2019-04-30T15:04:54.642Z,44.77
2019-04-30T15:07:34.063Z,44.84
2019-04-30T15:10:04.617Z,44.03
2019-04-30T15:15:30.115Z,45.18
2019-04-30T15:18:11.511Z,43.86
2019-04-30T15:20:42.625Z,44.75
2019-04-30T15:23:21.995Z,46.62
2019-04-30T15:28:32.444Z,46.15
2019-04-30T15:36:22.842Z,48.06
2019-04-30T15:41:34.627Z,47.80
2019-04-30T15:46:38.558Z,48.35
2019-04-30T15:49:06.132Z,49.85
2019-04-30T15:51:40.256Z,50.13
2019-04-30T15:56:48.996Z,50.38
2019-04-30T16:07:10.847Z,52.70
2019-04-30T16:09:39.403Z,53.20
2019-04-30T16:12:11.790Z,54.51
2019-04-30T16:14:41.004Z,54.51
2019-04-30T16:17:11.892Z,54.89
2019-04-30T16:19:39.093Z,55.92
2019-04-30T16:22:06.325Z,56.63
2019-04-30T16:24:33.651Z,56.49
2019-04-30T16:27:19.037Z,56.52
2019-04-30T16:29:51.011Z,56.54
2019-04-30T16:32:19.298Z,56.97
2019-04-30T16:34:52.261Z,56.84
2019-04-30T16:37:20.185Z,57.30
2019-04-30T16:39:47.886Z,57.22
2019-04-30T16:42:15.731Z,57.32
2019-04-30T16:50:13.717Z,59.37
2019-04-30T16:52:56.095Z,59.46
2019-04-30T16:58:09.876Z,58.51
2019-04-30T17:00:39.222Z,58.88
2019-04-30T17:03:11.843Z,59.35
2019-04-30T17:05:40.392Z,59.95
2019-04-30T17:11:03.514Z,59.32
2019-04-30T17:13:32.023Z,57.14
2019-04-30T17:15:59.526Z,58.17
2019-04-30T17:18:41.780Z,59.01
2019-04-30T17:21:11.133Z,58.92
2019-04-30T17:23:38.397Z,59.34
2019-04-30T17:26:07.627Z,59.11
2019-04-30T17:28:41.812Z,58.84
2019-04-30T17:31:13.415Z,58.53
2019-04-30T17:33:46.965Z,57.30
2019-04-30T17:41:44.288Z,59.17
2019-04-30T17:44:24.721Z,59.67
2019-04-30T17:46:54.295Z,59.79
2019-04-30T17:49:32.837Z,60.80
2019-04-30T17:52:02.063Z,61.38
2019-04-30T17:57:01.574Z,61.57
2019-04-30T17:59:30.768Z,62.55
2019-04-30T18:04:33.175Z,61.77
2019-04-30T18:07:00.789Z,60.96
2019-04-30T18:09:29.270Z,60.77
2019-04-30T18:14:35.669Z,61.59
2019-04-30T18:17:02.741Z,62.28
2019-04-30T18:19:29.985Z,62.43
2019-04-30T18:21:59.548Z,62.24
2019-04-30T18:24:32.571Z,62.29
2019-04-30T18:26:59.648Z,62.75
2019-04-30T18:29:27.798Z,63.15
2019-04-30T18:34:33.486Z,63.26
2019-04-30T18:37:00.738Z,63.73
2019-04-30T18:39:33.915Z,63.45
2019-04-30T18:42:01.190Z,63.49
2019-04-30T18:44:41.839Z,62.95
2019-04-30T18:47:10.029Z,63.09
2019-04-30T18:55:00.457Z,64.13
2019-04-30T19:00:16.331Z,64.30
2019-04-30T19:02:43.516Z,64.82
2019-04-30T19:08:19.484Z,65.30
2019-04-30T19:10:49.869Z,65.50
2019-04-30T19:18:26.623Z,65.67
2019-04-30T19:20:53.666Z,65.77
2019-04-30T19:23:20.923Z,65.90
2019-04-30T19:25:48.606Z,66.02
2019-04-30T19:28:18.843Z,66.04
2019-04-30T19:30:58.902Z,66.41
2019-04-30T19:33:29.226Z,66.40
2019-04-30T19:35:56.204Z,66.04
2019-04-30T19:38:23.543Z,66.07
2019-04-30T19:40:50.904Z,66.39
2019-04-30T19:43:18.258Z,66.37
2019-04-30T19:45:45.305Z,66.30
2019-04-30T19:48:12.368Z,65.95
2019-04-30T19:50:39.723Z,66.24
2019-04-30T19:53:08.797Z,66.05
2019-04-30T19:55:36.180Z,66.13
2019-04-30T19:58:03.251Z,66.56
2019-04-30T20:00:31.073Z,67.00
2019-04-30T20:02:59.916Z,67.58
2019-04-30T20:05:28.668Z,67.86
2019-04-30T20:07:55.754Z,67.30
2019-04-30T20:10:23.083Z,66.94
2019-04-30T20:12:50.128Z,66.80
2019-04-30T20:15:21.690Z,66.59
2019-04-30T20:17:46.567Z,66.26
2019-04-30T20:20:13.623Z,66.50
2019-04-30T20:22:40.668Z,66.29
2019-04-30T20:25:09.197Z,65.97
2019-04-30T20:27:36.339Z,65.76
2019-04-30T20:30:03.389Z,65.70
2019-04-30T20:32:36.235Z,65.66
2019-04-30T20:35:00.366Z,65.62
2019-04-30T20:37:29.354Z,65.60
2019-04-30T20:39:58.472Z,66.31
2019-04-30T20:42:25.175Z,66.13
2019-04-30T20:44:52.228Z,66.01
2019-04-30T20:47:21.157Z,66.10
2019-04-30T20:49:49.013Z,66.08
2019-04-30T20:52:16.047Z,66.18
2019-04-30T20:54:43.104Z,66.26
2019-04-30T20:57:10.615Z,66.53
2019-04-30T20:59:38.779Z,66.50
2019-04-30T21:02:05.858Z,66.64
2019-04-30T21:04:32.913Z,66.71
2019-04-30T21:06:59.970Z,66.89
2019-04-30T21:09:27.006Z,67.23
2019-04-30T21:11:54.051Z,66.94
2019-04-30T21:14:21.109Z,66.55
2019-04-30T21:16:48.154Z,66.77
2019-04-30T21:19:15.275Z,66.82
2019-04-30T21:21:42.630Z,67.21
2019-04-30T21:24:09.659Z,66.97
2019-04-30T21:26:38.006Z,66.85
2019-04-30T21:29:13.285Z,66.78
2019-04-30T21:31:34.047Z,67.14
2019-04-30T21:34:01.163Z,67.35
2019-04-30T21:36:28.599Z,67.65
2019-04-30T21:38:58.951Z,67.66
2019-04-30T21:41:26.150Z,67.77
2019-04-30T21:43:53.192Z,67.84
2019-04-30T21:46:20.555Z,67.72
2019-04-30T21:48:48.821Z,67.65
2019-04-30T21:51:15.938Z,67.97
2019-04-30T21:53:43.339Z,68.31
2019-04-30T21:56:10.397Z,68.70
2019-04-30T21:58:39.216Z,68.66
2019-04-30T22:01:06.193Z,68.74
2019-04-30T22:03:33.904Z,68.96
2019-04-30T22:06:01.235Z,69.47
2019-04-30T22:08:28.780Z,69.50
2019-04-30T22:10:58.190Z,69.45
2019-04-30T22:13:25.229Z,69.87
2019-04-30T22:15:52.604Z,69.94
2019-04-30T22:18:19.962Z,70.12
2019-04-30T22:20:47.012Z,69.88
2019-04-30T22:23:14.054Z,69.64
2019-04-30T22:25:41.427Z,69.21
2019-04-30T22:28:08.469Z,69.06
2019-04-30T22:30:35.811Z,68.70
2019-04-30T22:33:02.858Z,68.79
2019-04-30T22:35:29.921Z,68.53
2019-04-30T22:37:59.146Z,68.54
2019-04-30T22:40:25.723Z,69.10
2019-04-30T22:42:52.768Z,70.18
2019-04-30T22:45:20.168Z,70.83
2019-04-30T22:47:50.222Z,71.63
2019-04-30T22:50:17.235Z,71.15
2019-04-30T22:52:44.293Z,71.05
2019-04-30T22:55:11.543Z,71.41
2019-04-30T22:57:38.595Z,70.97
2019-04-30T23:00:05.631Z,70.80
2019-04-30T23:02:34.298Z,70.35
2019-04-30T23:05:01.340Z,70.09
2019-04-30T23:07:29.467Z,70.02
2019-04-30T23:09:56.787Z,69.87
2019-04-30T23:12:24.123Z,69.95
2019-04-30T23:14:51.168Z,69.77
2019-04-30T23:17:18.227Z,70.06
2019-04-30T23:19:49.516Z,70.66
2019-04-30T23:22:14.328Z,71.08
2019-04-30T23:24:41.367Z,71.29
2019-04-30T23:27:08.693Z,71.60
2019-04-30T23:29:36.020Z,71.32
2019-04-30T23:32:03.113Z,70.93
2019-04-30T23:34:30.404Z,70.96
2019-04-30T23:36:57.776Z,70.91
2019-04-30T23:39:25.130Z,70.81
2019-04-30T23:41:52.430Z,71.11
2019-04-30T23:44:19.478Z,71.44
2019-04-30T23:46:46.786Z,71.54
2019-04-30T23:49:13.831Z,71.69
2019-04-30T23:51:41.192Z,71.96
2019-04-30T23:54:09.305Z,72.15
2019-04-30T23:56:36.651Z,72.56
2019-04-30T23:59:03.947Z,72.72
